Latest Coastal Weather Observations for Sydney Harbour

IDN60701

Issued at 6:41 pm EST Thursday 24 August 2017 (issued every 10 minutes, with the page automatically refreshed every 10 minutes)

About coastal observations | Map of coastal stations | Coastal observations for NSW | Marine services | Other Formats
Station Details ID: 066196 Name: WEDDING CAKE WEST Lat: -33.84 Lon: 151.26 Height: 6.0 m
Data from the previous 72 hours. | See also: Recent months at Sydney Harbour
Date/Time
EST
Temp
°C
Wind Pressure Rain since
9am
mm
Weather Cloud Vis
km
Sea
Height
m
Swell
Dir  Spd
kts
Gust
kts
hPa Trend Height
m
Period
s
Dir
24/06:30pm 15.0 SSW 19 25 - - - - - - - - - -
24/06:00pm 15.0 SSW 20 25 - - - - - - - - - -
24/05:30pm 15.1 S 21 27 - - - - - - - - - -
24/05:00pm 15.1 S 20 27 - - - - - - - - - -
24/04:30pm 15.1 SSW 21 27 - - - - - - - - - -
24/04:00pm 15.2 S 21 29 - - - - - - - - - -
24/03:30pm 14.9 S 21 28 - - - - - - - - - -
24/03:00pm 15.1 S 22 29 - - - - - - - - - -
24/02:30pm 15.0 S 21 27 - - - - - - - - - -
24/02:00pm 14.9 SSW 25 29 - - - - - - - - - -
24/01:30pm 14.5 S 22 28 - - - - - - - - - -
24/01:00pm 15.0 S 23 28 - - - - - - - - - -
24/12:30pm 14.8 S 21 28 - - - - - - - - - -
24/12:00pm 15.0 SSW 23 28 - - - - - - - - - -
24/11:30am 15.0 SSW 22 30 - - - - - - - - - -
24/11:00am 15.4 SSW 21 28 - - - - - - - - - -
24/10:59am 15.3 SSW 21 28 - - - - - - - - - -
24/10:30am 15.9 SW 11 17 - - - - - - - - - -
24/10:00am 14.8 WSW 11 16 - - - - - - - - - -
24/09:30am 14.1 WSW 14 18 - - - - - - - - - -
24/09:00am 13.6 W 15 19 - - - - - - - - - -
24/08:30am 13.2 W 15 19 - - - - - - - - - -
24/08:00am 12.8 WSW 12 19 - - - - - - - - - -
24/07:30am 12.8 WSW 12 16 - - - - - - - - - -
24/07:00am 13.1 WSW 11 14 - - - - - - - - - -
24/06:30am 13.4 WSW 9 11 - - - - - - - - - -
24/06:00am 13.1 WSW 6 8 - - - - - - - - - -
24/05:30am 13.4 WSW 9 12 - - - - - - - - - -
24/05:00am 13.5 WSW 9 11 - - - - - - - - - -
24/04:30am 13.6 WSW 8 9 - - - - - - - - - -
24/04:00am 14.0 SW 9 11 - - - - - - - - - -
24/03:30am 14.3 WSW 14 16 - - - - - - - - - -
24/03:00am 14.2 WSW 11 15 - - - - - - - - - -
24/02:30am 14.1 WSW 9 11 - - - - - - - - - -
24/02:00am 13.9 WSW 8 9 - - - - - - - - - -
24/01:30am 14.3 SW 10 13 - - - - - - - - - -
24/01:00am 15.2 WSW 10 13 - - - - - - - - - -
24/12:30am 15.4 SW 9 11 - - - - - - - - - -
24/12:00am 15.5 N 8 9 - - - - - - - - - -
 
Date/Time
EST
Temp
°C
Wind Pressure Rain since
9am
mm
Weather Cloud Vis
km
Sea
Height
m
Swell
Dir  Spd
kts
Gust
kts
hPa Trend Height
m
Period
s
Dir
23/11:30pm 15.5 N 5 7 - - - - - - - - - -
23/11:00pm 15.5 N 6 7 - - - - - - - - - -
23/10:30pm 15.5 N 7 8 - - - - - - - - - -
23/10:00pm 15.5 N 7 7 - - - - - - - - - -
23/09:30pm 15.7 N 7 8 - - - - - - - - - -
23/09:00pm 16.3 N 8 11 - - - - - - - - - -
23/08:30pm 16.9 N 7 9 - - - - - - - - - -
23/08:00pm 16.2 CALM 0 0 - - - - - - - - - -
23/07:30pm 16.4 CALM 0 0 - - - - - - - - - -
23/07:00pm 16.3 CALM 0 0 - - - - - - - - - -
23/06:30pm 17.0 NNE 4 6 - - - - - - - - - -
23/06:00pm 17.3 NNE 7 8 - - - - - - - - - -
23/05:30pm 17.4 NNE 11 13 - - - - - - - - - -
23/05:00pm 17.4 NNE 12 14 - - - - - - - - - -
23/04:30pm 17.2 NNE 13 15 - - - - - - - - - -
23/04:00pm 17.2 NNE 13 15 - - - - - - - - - -
23/03:30pm 17.1 NNE 13 15 - - - - - - - - - -
23/03:00pm 17.1 NNE 13 15 - - - - - - - - - -
23/02:30pm 17.0 NNE 12 14 - - - - - - - - - -
23/02:00pm 17.1 NE 12 15 - - - - - - - - - -
23/01:30pm 17.0 NE 12 15 - - - - - - - - - -
23/01:00pm 16.9 NNE 11 14 - - - - - - - - - -
23/12:30pm 16.7 NNE 13 15 - - - - - - - - - -
23/12:00pm 16.5 NNE 13 16 - - - - - - - - - -
23/11:30am 16.6 NNE 13 16 - - - - - - - - - -
23/11:00am 16.8 NNE 12 15 - - - - - - - - - -
23/10:30am 16.4 ENE 7 13 - - - - - - - - - -
23/10:00am 13.9 ENE 6 8 - - - - - - - - - -
23/09:30am 13.0 ENE 6 7 - - - - - - - - - -
23/09:00am 12.8 ENE 6 8 - - - - - - - - - -
23/08:30am 11.7 ENE 7 8 - - - - - - - - - -
23/08:00am 11.4 ENE 6 7 - - - - - - - - - -
23/07:30am 10.9 ENE 5 7 - - - - - - - - - -
23/07:00am 10.5 ENE 5 6 - - - - - - - - - -
23/06:30am 10.3 ENE 6 7 - - - - - - - - - -
23/06:00am 10.8 ENE 6 8 - - - - - - - - - -
23/05:30am 11.1 ENE 5 7 - - - - - - - - - -
23/05:00am 11.5 ENE 4 6 - - - - - - - - - -
23/04:30am 11.4 ENE 2 4 - - - - - - - - - -
23/04:00am 11.5 ENE 4 6 - - - - - - - - - -
23/03:30am 11.8 ENE 5 6 - - - - - - - - - -
23/03:00am 11.8 ENE 5 6 - - - - - - - - - -
23/02:30am 12.2 ENE 4 6 - - - - - - - - - -
23/02:00am 12.8 ENE 5 5 - - - - - - - - - -
23/01:30am 12.6 CALM 0 0 - - - - - - - - - -
23/01:00am 13.1 ENE 3 4 - - - - - - - - - -
23/12:30am 13.1 CALM 0 0 - - - - - - - - - -
23/12:00am 13.1 ENE 2 5 - - - - - - - - - -
 
Date/Time
EST
Temp
°C
Wind Pressure Rain since
9am
mm
Weather Cloud Vis
km
Sea
Height
m
Swell
Dir  Spd
kts
Gust
kts
hPa Trend Height
m
Period
s
Dir
22/11:30pm 13.6 ENE 4 5 - - - - - - - - - -
22/11:00pm 13.6 CALM 0 4 - - - - - - - - - -
22/10:30pm 14.5 ENE 3 5 - - - - - - - - - -
22/10:00pm 14.1 ENE 6 7 - - - - - - - - - -
22/09:30pm 15.1 ENE 5 6 - - - - - - - - - -
22/09:00pm 14.9 ENE 6 7 - - - - - - - - - -
22/08:30pm 16.4 ENE 7 8 - - - - - - - - - -
22/08:00pm 16.4 ENE 7 9 - - - - - - - - - -
22/07:30pm 16.3 E 6 7 - - - - - - - - - -
22/07:00pm 16.3 E 6 7 - - - - - - - - - -
22/06:30pm 16.3 E 7 9 - - - - - - - - - -
22/06:00pm 16.1 E 7 7 - - - - - - - - - -
22/05:30pm 16.1 E 7 9 - - - - - - - - - -
22/05:00pm 16.7 E 6 8 - - - - - - - - - -
22/04:30pm 16.8 E 7 9 - - - - - - - - - -
22/04:00pm 17.3 E 8 10 - - - - - - - - - -
22/03:30pm 17.4 E 7 10 - - - - - - - - - -
22/03:00pm 17.0 ESE 9 11 - - - - - - - - - -
22/02:30pm 17.0 SE 11 14 - - - - - - - - - -
22/02:00pm 17.0 ESE 9 12 - - - - - - - - - -
22/01:30pm 16.9 ESE 10 12 - - - - - - - - - -
22/01:00pm 16.7 ESE 9 11 - - - - - - - - - -
22/12:30pm 17.6 WSW 4 7 - - - - - - - - - -
22/12:00pm 16.4 WSW 5 6 - - - - - - - - - -
22/11:30am 16.5 WSW 1 5 - - - - - - - - - -
22/11:00am 15.1 WSW 6 8 - - - - - - - - - -
22/10:30am 14.6 WSW 6 8 - - - - - - - - - -
22/10:00am 13.7 WSW 7 8 - - - - - - - - - -
22/09:30am 13.3 WSW 7 8 - - - - - - - - - -
22/09:00am 12.6 WSW 7 9 - - - - - - - - - -
22/08:30am 11.8 WSW 6 8 - - - - - - - - - -
22/08:00am 12.0 WSW 5 8 - - - - - - - - - -
22/07:30am 11.4 W 8 10 - - - - - - - - - -
22/07:00am 10.8 W 9 11 - - - - - - - - - -
22/06:30am 11.2 W 5 7 - - - - - - - - - -
22/06:00am 10.9 W 5 7 - - - - - - - - - -
22/05:30am 11.2 W 7 9 - - - - - - - - - -
22/05:00am 11.2 W 8 9 - - - - - - - - - -
22/04:30am 11.7 WSW 6 8 - - - - - - - - - -
22/04:00am 11.6 WSW 6 8 - - - - - - - - - -
22/03:30am 12.1 W 5 7 - - - - - - - - - -
22/03:00am 12.1 W 5 6 - - - - - - - - - -
22/02:30am 12.4 W 6 7 - - - - - - - - - -
22/02:00am 12.7 W 7 8 - - - - - - - - - -
22/01:30am 12.9 W 7 8 - - - - - - - - - -
22/01:00am 13.1 W 7 8 - - - - - - - - - -
22/12:30am 13.4 SSW 3 5 - - - - - - - - - -
22/12:00am 13.8 SSW 4 6 - - - - - - - - - -
 
Date/Time
EST
Temp
°C
Wind Pressure Rain since
9am
mm
Weather Cloud Vis
km
Sea
Height
m
Swell
Dir  Spd
kts
Gust
kts
hPa Trend Height
m
Period
s
Dir
21/11:30pm 14.1 SSW 7 8 - - - - - - - - - -
21/11:00pm 13.7 SSW 7 8 - - - - - - - - - -
21/10:30pm 14.0 SSW 7 9 - - - - - - - - - -
21/10:00pm 14.2 NNW 7 11 - - - - - - - - - -
21/09:30pm 15.0 N 6 6 - - - - - - - - - -
21/09:00pm 14.7 N 4 5 - - - - - - - - - -
21/08:30pm 15.1 N 4 5 - - - - - - - - - -
21/08:00pm 14.7 N 4 6 - - - - - - - - - -
21/07:30pm 14.8 N 3 4 - - - - - - - - - -
21/07:00pm 14.6 CALM 0 0 - - - - - - - - - -

Other Formats:

Comma delimited format used in spreadsheet applications
http://www.bom.gov.au/fwo/IDN60701/IDN60701.95766.axf

JavaScript Object Notation format (JSON) in row-major order
http://www.bom.gov.au/fwo/IDN60701/IDN60701.95766.json